sensor_id;sensor_type;location;lat;lon;timestamp;pressure;altitude;pressure_sealevel;temperature;humidity
56270;BME280;42176;43.240;27.880;2023-03-04T00:01:47;100331.06;;;5.23;100.00
56270;BME280;42176;43.240;27.880;2023-03-04T00:04:12;100325.72;;;4.95;100.00
56270;BME280;42176;43.240;27.880;2023-03-04T00:06:38;100316.13;;;5.05;100.00
56270;BME280;42176;43.240;27.880;2023-03-04T00:09:04;100323.16;;;5.18;100.00
56270;BME280;42176;43.240;27.880;2023-03-04T00:11:30;100353.94;;;5.52;100.00
56270;BME280;42176;43.240;27.880;2023-03-04T00:13:56;100339.69;;;4.86;100.00
56270;BME280;42176;43.240;27.880;2023-03-04T00:16:22;100326.56;;;4.89;100.00
56270;BME280;42176;43.240;27.880;2023-03-04T00:18:51;100332.78;;;5.08;100.00
56270;BME280;42176;43.240;27.880;2023-03-04T00:21:17;100346.91;;;5.49;100.00
56270;BME280;42176;43.240;27.880;2023-03-04T00:23:42;100344.06;;;4.84;100.00
56270;BME280;42176;43.240;27.880;2023-03-04T00:26:08;100340.63;;;4.94;100.00
56270;BME280;42176;43.240;27.880;2023-03-04T00:28:34;100359.94;;;5.09;100.00
56270;BME280;42176;43.240;27.880;2023-03-04T00:30:59;100360.00;;;5.27;100.00
56270;BME280;42176;43.240;27.880;2023-03-04T00:33:25;100352.94;;;5.14;100.00
56270;BME280;42176;43.240;27.880;2023-03-04T00:35:50;100349.38;;;4.93;100.00
56270;BME280;42176;43.240;27.880;2023-03-04T00:38:16;100357.31;;;5.09;100.00
56270;BME280;42176;43.240;27.880;2023-03-04T00:40:41;100360.00;;;5.29;100.00
56270;BME280;42176;43.240;27.880;2023-03-04T00:43:07;100357.44;;;5.43;100.00
56270;BME280;42176;43.240;27.880;2023-03-04T00:45:32;100360.06;;;5.52;100.00
56270;BME280;42176;43.240;27.880;2023-03-04T00:47:58;100346.63;;;4.70;100.00
56270;BME280;42176;43.240;27.880;2023-03-04T00:50:23;100336.13;;;4.75;100.00
56270;BME280;42176;43.240;27.880;2023-03-04T00:52:49;100333.59;;;4.93;100.00
56270;BME280;42176;43.240;27.880;2023-03-04T00:55:15;100331.06;;;5.12;100.00
56270;BME280;42176;43.240;27.880;2023-03-04T00:57:40;100335.44;;;5.19;100.00
56270;BME280;42176;43.240;27.880;2023-03-04T01:02:32;100322.13;;;4.71;100.00
56270;BME280;42176;43.240;27.880;2023-03-04T01:04:58;100319.56;;;4.88;100.00
56270;BME280;42176;43.240;27.880;2023-03-04T01:07:23;100320.56;;;5.24;100.00
56270;BME280;42176;43.240;27.880;2023-03-04T01:09:49;100326.47;;;4.64;100.00
56270;BME280;42176;43.240;27.880;2023-03-04T01:12:14;100308.13;;;4.72;100.00
56270;BME280;42176;43.240;27.880;2023-03-04T01:14:40;100333.59;;;4.99;100.00
56270;BME280;42176;43.240;27.880;2023-03-04T01:17:05;100339.84;;;5.18;100.00
56270;BME280;42176;43.240;27.880;2023-03-04T01:19:30;100338.97;;;5.30;100.00
56270;BME280;42176;43.240;27.880;2023-03-04T01:21:56;100315.88;;;4.52;100.00
56270;BME280;42176;43.240;27.880;2023-03-04T01:24:21;100305.47;;;4.70;100.00
56270;BME280;42176;43.240;27.880;2023-03-04T01:26:47;100321.34;;;4.98;100.00
56270;BME280;42176;43.240;27.880;2023-03-04T01:29:12;100313.53;;;5.11;100.00
56270;BME280;42176;43.240;27.880;2023-03-04T01:31:38;100327.59;;;5.30;100.00
56270;BME280;42176;43.240;27.880;2023-03-04T01:34:03;100332.88;;;5.47;100.00
56270;BME280;42176;43.240;27.880;2023-03-04T01:36:28;100311.66;;;4.79;100.00
56270;BME280;42176;43.240;27.880;2023-03-04T01:38:54;100303.84;;;4.94;100.00
56270;BME280;42176;43.240;27.880;2023-03-04T01:41:24;100307.38;;;5.09;100.00
56270;BME280;42176;43.240;27.880;2023-03-04T01:43:50;100302.19;;;5.27;100.00
56270;BME280;42176;43.240;27.880;2023-03-04T01:46:16;100295.16;;;5.20;100.00
56270;BME280;42176;43.240;27.880;2023-03-04T01:48:42;100283.56;;;4.57;100.00
56270;BME280;42176;43.240;27.880;2023-03-04T01:51:14;100282.78;;;4.82;100.00
56270;BME280;42176;43.240;27.880;2023-03-04T01:53:40;100288.94;;;4.99;100.00
56270;BME280;42176;43.240;27.880;2023-03-04T01:56:19;100289.94;;;5.42;100.00
56270;BME280;42176;43.240;27.880;2023-03-04T01:59:08;100267.00;;;4.80;100.00
56270;BME280;42176;43.240;27.880;2023-03-04T02:01:35;100281.06;;;5.02;100.00
56270;BME280;42176;43.240;27.880;2023-03-04T02:04:01;100274.19;;;5.45;100.00
56270;BME280;42176;43.240;27.880;2023-03-04T02:06:27;100288.97;;;5.01;100.00
56270;BME280;42176;43.240;27.880;2023-03-04T02:08:52;100288.03;;;4.88;100.00
56270;BME280;42176;43.240;27.880;2023-03-04T02:11:18;100289.88;;;5.11;100.00
56270;BME280;42176;43.240;27.880;2023-03-04T02:13:43;100285.53;;;5.22;100.00
56270;BME280;42176;43.240;27.880;2023-03-04T02:16:09;100289.09;;;5.60;100.00
56270;BME280;42176;43.240;27.880;2023-03-04T02:18:34;100278.44;;;4.99;100.00
56270;BME280;42176;43.240;27.880;2023-03-04T02:21:14;100278.47;;;5.10;100.00
56270;BME280;42176;43.240;27.880;2023-03-04T02:23:48;100281.16;;;5.37;100.00
56270;BME280;42176;43.240;27.880;2023-03-04T02:26:20;100274.06;;;5.01;100.00
56270;BME280;42176;43.240;27.880;2023-03-04T02:28:47;100271.47;;;5.14;100.00
56270;BME280;42176;43.240;27.880;2023-03-04T02:33:48;100268.84;;;5.09;100.00
56270;BME280;42176;43.240;27.880;2023-03-04T02:36:13;100263.59;;;5.12;100.00
56270;BME280;42176;43.240;27.880;2023-03-04T02:38:39;100276.78;;;5.31;100.00
56270;BME280;42176;43.240;27.880;2023-03-04T02:41:05;100277.63;;;5.22;100.00
56270;BME280;42176;43.240;27.880;2023-03-04T02:43:33;100276.72;;;5.05;100.00
56270;BME280;42176;43.240;27.880;2023-03-04T02:45:59;100274.97;;;5.16;100.00
56270;BME280;42176;43.240;27.880;2023-03-04T02:48:24;100275.91;;;5.33;100.00
56270;BME280;42176;43.240;27.880;2023-03-04T02:50:51;100282.06;;;5.51;100.00
56270;BME280;42176;43.240;27.880;2023-03-04T02:53:18;100287.34;;;5.68;100.00
56270;BME280;42176;43.240;27.880;2023-03-04T02:55:45;100282.94;;;5.84;100.00
56270;BME280;42176;43.240;27.880;2023-03-04T02:58:11;100278.56;;;5.64;100.00
56270;BME280;42176;43.240;27.880;2023-03-04T03:00:38;100286.31;;;4.90;100.00
56270;BME280;42176;43.240;27.880;2023-03-04T03:03:04;100284.56;;;4.98;100.00
56270;BME280;42176;43.240;27.880;2023-03-04T03:05:31;100296.03;;;5.22;100.00
56270;BME280;42176;43.240;27.880;2023-03-04T03:07:57;100300.38;;;5.17;100.00
56270;BME280;42176;43.240;27.880;2023-03-04T03:10:23;100302.09;;;5.02;100.00
56270;BME280;42176;43.240;27.880;2023-03-04T03:12:48;100298.66;;;5.13;100.00
56270;BME280;42176;43.240;27.880;2023-03-04T03:15:14;100305.69;;;5.29;100.00
56270;BME280;42176;43.240;27.880;2023-03-04T03:17:40;100300.47;;;5.42;100.00
56270;BME280;42176;43.240;27.880;2023-03-04T03:20:07;100280.19;;;4.99;100.00
56270;BME280;42176;43.240;27.880;2023-03-04T03:22:32;100298.63;;;5.07;100.00
56270;BME280;42176;43.240;27.880;2023-03-04T03:24:58;100301.28;;;5.21;100.00
56270;BME280;42176;43.240;27.880;2023-03-04T03:27:23;100295.19;;;5.36;100.00
56270;BME280;42176;43.240;27.880;2023-03-04T03:29:49;100288.03;;;4.85;100.00
56270;BME280;42176;43.240;27.880;2023-03-04T03:32:14;100275.78;;;4.87;100.00
56270;BME280;42176;43.240;27.880;2023-03-04T03:34:40;100296.91;;;5.21;100.00
56270;BME280;42176;43.240;27.880;2023-03-04T03:37:05;100273.94;;;4.67;100.00
56270;BME280;42176;43.240;27.880;2023-03-04T03:39:31;100288.06;;;4.91;100.00
56270;BME280;42176;43.240;27.880;2023-03-04T03:41:56;100295.09;;;5.05;100.00
56270;BME280;42176;43.240;27.880;2023-03-04T03:44:21;100302.19;;;5.24;100.00
56270;BME280;42176;43.240;27.880;2023-03-04T03:46:47;100305.72;;;5.43;100.00
56270;BME280;42176;43.240;27.880;2023-03-04T03:49:12;100287.31;;;5.59;100.00
56270;BME280;42176;43.240;27.880;2023-03-04T03:51:38;100287.34;;;5.77;100.00
56270;BME280;42176;43.240;27.880;2023-03-04T03:54:03;100279.41;;;5.29;100.00
56270;BME280;42176;43.240;27.880;2023-03-04T03:56:29;100282.84;;;4.97;100.00
56270;BME280;42176;43.240;27.880;2023-03-04T03:58:54;100289.88;;;5.11;100.00
56270;BME280;42176;43.240;27.880;2023-03-04T04:01:20;100282.00;;;5.18;100.00
56270;BME280;42176;43.240;27.880;2023-03-04T04:03:45;100288.19;;;5.38;100.00
56270;BME280;42176;43.240;27.880;2023-03-04T04:06:10;100282.94;;;5.53;100.00
56270;BME280;42176;43.240;27.880;2023-03-04T04:08:36;100289.97;;;5.70;100.00
56270;BME280;42176;43.240;27.880;2023-03-04T04:11:02;100290.84;;;5.86;100.00
56270;BME280;42176;43.240;27.880;2023-03-04T04:13:27;100290.00;;;6.07;100.00
56270;BME280;42176;43.240;27.880;2023-03-04T04:15:53;100280.22;;;5.08;100.00
56270;BME280;42176;43.240;27.880;2023-03-04T04:18:18;100288.09;;;5.03;100.00
56270;BME280;42176;43.240;27.880;2023-03-04T04:20:45;100281.97;;;5.06;100.00
56270;BME280;42176;43.240;27.880;2023-03-04T04:23:11;100286.41;;;5.32;100.00
56270;BME280;42176;43.240;27.880;2023-03-04T04:25:36;100293.44;;;5.36;100.00
56270;BME280;42176;43.240;27.880;2023-03-04T04:28:02;100307.28;;;4.87;100.00
56270;BME280;42176;43.240;27.880;2023-03-04T04:30:27;100289.84;;;4.95;100.00
56270;BME280;42176;43.240;27.880;2023-03-04T04:32:53;100313.53;;;5.22;100.00
56270;BME280;42176;43.240;27.880;2023-03-04T04:35:19;100317.13;;;5.58;100.00
56270;BME280;42176;43.240;27.880;2023-03-04T04:37:44;100307.31;;;4.90;100.00
56270;BME280;42176;43.240;27.880;2023-03-04T04:40:10;100313.50;;;5.03;100.00
56270;BME280;42176;43.240;27.880;2023-03-04T04:42:36;100321.47;;;5.26;100.00
56270;BME280;42176;43.240;27.880;2023-03-04T04:45:01;100326.72;;;5.26;100.00
56270;BME280;42176;43.240;27.880;2023-03-04T04:47:27;100323.09;;;4.99;100.00
56270;BME280;42176;43.240;27.880;2023-03-04T04:49:52;100331.03;;;5.13;100.00
56270;BME280;42176;43.240;27.880;2023-03-04T04:52:17;100330.22;;;5.28;100.00
56270;BME280;42176;43.240;27.880;2023-03-04T04:54:43;100322.34;;;5.39;100.00
56270;BME280;42176;43.240;27.880;2023-03-04T04:57:08;100337.09;;;4.89;100.00
56270;BME280;42176;43.240;27.880;2023-03-04T04:59:34;100340.63;;;5.03;100.00
56270;BME280;42176;43.240;27.880;2023-03-04T05:01:59;100343.28;;;5.07;100.00
56270;BME280;42176;43.240;27.880;2023-03-04T05:04:25;100333.66;;;5.15;100.00
56270;BME280;42176;43.240;27.880;2023-03-04T05:06:50;100367.03;;;5.34;100.00
56270;BME280;42176;43.240;27.880;2023-03-04T05:09:16;100358.31;;;5.42;100.00
56270;BME280;42176;43.240;27.880;2023-03-04T05:11:41;100360.03;;;5.46;100.00
56270;BME280;42176;43.240;27.880;2023-03-04T05:14:06;100329.97;;;4.69;100.00
56270;BME280;42176;43.240;27.880;2023-03-04T05:16:32;100358.13;;;4.97;100.00
56270;BME280;42176;43.240;27.880;2023-03-04T05:18:57;100372.22;;;5.16;100.00
56270;BME280;42176;43.240;27.880;2023-03-04T05:21:23;100367.88;;;5.26;100.00
56270;BME280;42176;43.240;27.880;2023-03-04T05:23:48;100395.13;;;5.51;100.00
56270;BME280;42176;43.240;27.880;2023-03-04T05:26:15;100385.53;;;5.67;100.00
56270;BME280;42176;43.240;27.880;2023-03-04T05:28:41;100373.28;;;5.92;100.00
56270;BME280;42176;43.240;27.880;2023-03-04T05:31:07;100376.56;;;5.06;100.00
56270;BME280;42176;43.240;27.880;2023-03-04T05:33:32;100376.59;;;5.11;100.00
56270;BME280;42176;43.240;27.880;2023-03-04T05:35:59;100384.50;;;5.20;100.00
56270;BME280;42176;43.240;27.880;2023-03-04T05:38:24;100384.59;;;5.39;100.00
56270;BME280;42176;43.240;27.880;2023-03-04T05:40:56;100388.19;;;5.75;100.00
56270;BME280;42176;43.240;27.880;2023-03-04T05:43:22;100373.94;;;5.09;100.00
56270;BME280;42176;43.240;27.880;2023-03-04T05:45:48;100379.25;;;5.20;100.00
56270;BME280;42176;43.240;27.880;2023-03-04T05:48:14;100380.22;;;5.41;100.00
56270;BME280;42176;43.240;27.880;2023-03-04T05:50:39;100387.25;;;5.56;100.00
56270;BME280;42176;43.240;27.880;2023-03-04T05:53:04;100387.28;;;5.74;100.00
56270;BME280;42176;43.240;27.880;2023-03-04T05:55:30;100365.25;;;5.21;100.00
56270;BME280;42176;43.240;27.880;2023-03-04T05:57:56;100366.06;;;5.12;100.00
56270;BME280;42176;43.240;27.880;2023-03-04T06:02:47;100378.47;;;5.49;100.00
56270;BME280;42176;43.240;27.880;2023-03-04T06:05:13;100377.63;;;5.62;100.00
56270;BME280;42176;43.240;27.880;2023-03-04T06:07:41;100382.03;;;5.73;100.00
56270;BME280;42176;43.240;27.880;2023-03-04T06:10:12;100372.19;;;5.11;100.00
56270;BME280;42176;43.240;27.880;2023-03-04T06:12:38;100387.16;;;5.32;100.00
56270;BME280;42176;43.240;27.880;2023-03-04T06:15:04;100383.75;;;5.51;100.00
56270;BME280;42176;43.240;27.880;2023-03-04T06:17:30;100386.44;;;5.83;100.00
56270;BME280;42176;43.240;27.880;2023-03-04T06:19:56;100373.13;;;5.23;100.00
56270;BME280;42176;43.240;27.880;2023-03-04T06:22:21;100381.91;;;5.23;100.00
56270;BME280;42176;43.240;27.880;2023-03-04T06:24:47;100384.59;;;5.48;100.00
56270;BME280;42176;43.240;27.880;2023-03-04T06:27:12;100386.41;;;5.68;100.00
56270;BME280;42176;43.240;27.880;2023-03-04T06:29:38;100373.94;;;5.08;100.00
56270;BME280;42176;43.240;27.880;2023-03-04T06:32:03;100381.06;;;5.32;100.00
56270;BME280;42176;43.240;27.880;2023-03-04T06:34:29;100390.78;;;5.56;100.00
56270;BME280;42176;43.240;27.880;2023-03-04T06:36:54;100381.09;;;5.52;100.00
56270;BME280;42176;43.240;27.880;2023-03-04T06:39:20;100372.31;;;5.41;100.00
56270;BME280;42176;43.240;27.880;2023-03-04T06:41:45;100353.97;;;5.59;100.00
56270;BME280;42176;43.240;27.880;2023-03-04T06:44:11;100362.81;;;6.06;100.00
56270;BME280;42176;43.240;27.880;2023-03-04T06:46:37;100355.72;;;5.60;100.00
56270;BME280;42176;43.240;27.880;2023-03-04T06:49:02;100352.22;;;5.77;100.00
56270;BME280;42176;43.240;27.880;2023-03-04T06:51:28;100346.13;;;6.03;100.00
56270;BME280;42176;43.240;27.880;2023-03-04T06:53:55;100338.25;;;6.03;100.00
56270;BME280;42176;43.240;27.880;2023-03-04T06:56:20;100324.16;;;5.62;100.00
56270;BME280;42176;43.240;27.880;2023-03-04T06:58:46;100331.19;;;5.97;100.00
56270;BME280;42176;43.240;27.880;2023-03-04T07:01:19;100328.56;;;6.30;100.00
56270;BME280;42176;43.240;27.880;2023-03-04T07:03:45;100319.78;;;6.31;100.00
56270;BME280;42176;43.240;27.880;2023-03-04T07:06:13;100304.88;;;6.11;100.00
56270;BME280;42176;43.240;27.880;2023-03-04T07:08:39;100305.72;;;6.47;100.00
56270;BME280;42176;43.240;27.880;2023-03-04T07:11:05;100307.38;;;6.79;100.00
56270;BME280;42176;43.240;27.880;2023-03-04T07:13:31;100302.06;;;6.87;100.00
56270;BME280;42176;43.240;27.880;2023-03-04T07:15:59;100278.59;;;6.13;100.00
56270;BME280;42176;43.240;27.880;2023-03-04T07:18:24;100300.41;;;6.66;100.00
56270;BME280;42176;43.240;27.880;2023-03-04T07:20:53;100292.34;;;6.98;100.00
56270;BME280;42176;43.240;27.880;2023-03-04T07:23:19;100293.25;;;6.93;100.00
56270;BME280;42176;43.240;27.880;2023-03-04T07:25:45;100293.44;;;6.43;100.00
56270;BME280;42176;43.240;27.880;2023-03-04T07:28:10;100285.38;;;6.86;100.00
56270;BME280;42176;43.240;27.880;2023-03-04T07:30:36;100278.97;;;7.37;100.00
56270;BME280;42176;43.240;27.880;2023-03-04T07:33:01;100280.34;;;7.88;100.00
56270;BME280;42176;43.240;27.880;2023-03-04T07:35:27;100272.03;;;8.30;100.00
56270;BME280;42176;43.240;27.880;2023-03-04T07:37:52;100262.03;;;8.58;100.00
56270;BME280;42176;43.240;27.880;2023-03-04T07:40:18;100265.13;;;8.94;100.00
56270;BME280;42176;43.240;27.880;2023-03-04T07:42:47;100272.56;;;9.32;100.00
56270;BME280;42176;43.240;27.880;2023-03-04T07:45:13;100245.75;;;9.53;100.00
56270;BME280;42176;43.240;27.880;2023-03-04T07:47:38;100271.50;;;9.97;100.00
56270;BME280;42176;43.240;27.880;2023-03-04T07:50:05;100258.69;;;10.24;99.17
56270;BME280;42176;43.240;27.880;2023-03-04T07:52:31;100271.19;;;10.64;97.84
56270;BME280;42176;43.240;27.880;2023-03-04T07:54:56;100277.66;;;10.93;95.90
56270;BME280;42176;43.240;27.880;2023-03-04T07:57:22;100272.03;;;11.08;93.16
56270;BME280;42176;43.240;27.880;2023-03-04T07:59:47;100272.22;;;11.40;92.68
56270;BME280;42176;43.240;27.880;2023-03-04T08:02:13;100261.97;;;11.62;89.53
56270;BME280;42176;43.240;27.880;2023-03-04T08:04:39;100261.91;;;11.65;85.05
56270;BME280;42176;43.240;27.880;2023-03-04T08:07:05;100266.72;;;11.84;86.88
56270;BME280;42176;43.240;27.880;2023-03-04T08:09:30;100256.69;;;11.97;85.25
56270;BME280;42176;43.240;27.880;2023-03-04T08:11:56;100257.28;;;12.10;82.87
56270;BME280;42176;43.240;27.880;2023-03-04T08:14:21;100246.72;;;12.07;82.19
56270;BME280;42176;43.240;27.880;2023-03-04T08:16:47;100260.16;;;12.33;81.91
56270;BME280;42176;43.240;27.880;2023-03-04T08:19:12;100252.75;;;12.46;78.03
56270;BME280;42176;43.240;27.880;2023-03-04T08:21:38;100265.84;;;12.84;76.72
56270;BME280;42176;43.240;27.880;2023-03-04T08:24:04;100248.47;;;13.31;74.57
56270;BME280;42176;43.240;27.880;2023-03-04T08:26:35;100230.41;;;13.96;70.15
56270;BME280;42176;43.240;27.880;2023-03-04T08:29:04;100249.75;;;14.52;68.32
56270;BME280;42176;43.240;27.880;2023-03-04T08:31:30;100245.97;;;15.95;59.05
56270;BME280;42176;43.240;27.880;2023-03-04T08:33:56;100240.28;;;15.16;60.54
56270;BME280;42176;43.240;27.880;2023-03-04T08:36:21;100245.94;;;14.84;62.28
56270;BME280;42176;43.240;27.880;2023-03-04T08:38:47;100249.47;;;15.09;61.66
56270;BME280;42176;43.240;27.880;2023-03-04T08:41:12;100245.38;;;15.66;57.59
56270;BME280;42176;43.240;27.880;2023-03-04T08:43:38;100245.44;;;15.87;56.41
56270;BME280;42176;43.240;27.880;2023-03-04T08:46:04;100248.72;;;15.49;58.31
56270;BME280;42176;43.240;27.880;2023-03-04T08:48:32;100257.75;;;15.47;59.93
56270;BME280;42176;43.240;27.880;2023-03-04T08:50:57;100236.63;;;15.83;57.25
56270;BME280;42176;43.240;27.880;2023-03-04T08:53:23;100240.38;;;15.57;56.86
56270;BME280;42176;43.240;27.880;2023-03-04T08:55:50;100243.03;;;15.36;57.32
56270;BME280;42176;43.240;27.880;2023-03-04T08:58:15;100238.53;;;15.15;58.78
56270;BME280;42176;43.240;27.880;2023-03-04T09:00:43;100234.78;;;14.97;59.58
56270;BME280;42176;43.240;27.880;2023-03-04T09:03:12;100235.19;;;14.62;62.30
56270;BME280;42176;43.240;27.880;2023-03-04T09:05:37;100234.66;;;14.76;62.94
56270;BME280;42176;43.240;27.880;2023-03-04T09:08:03;100220.22;;;14.82;61.72
56270;BME280;42176;43.240;27.880;2023-03-04T09:10:28;100230.84;;;15.29;60.41
56270;BME280;42176;43.240;27.880;2023-03-04T09:12:54;100221.03;;;15.52;57.75
56270;BME280;42176;43.240;27.880;2023-03-04T09:15:19;100233.81;;;14.75;60.44
56270;BME280;42176;43.240;27.880;2023-03-04T09:17:45;100233.66;;;14.55;61.94
56270;BME280;42176;43.240;27.880;2023-03-04T09:20:11;100225.09;;;14.70;61.26
56270;BME280;42176;43.240;27.880;2023-03-04T09:22:37;100223.78;;;14.57;61.09
56270;BME280;42176;43.240;27.880;2023-03-04T09:25:04;100226.03;;;14.44;62.94
56270;BME280;42176;43.240;27.880;2023-03-04T09:27:30;100211.25;;;14.35;61.32
56270;BME280;42176;43.240;27.880;2023-03-04T09:29:55;100214.97;;;14.31;62.67
56270;BME280;42176;43.240;27.880;2023-03-04T09:32:20;100210.56;;;14.30;63.54
56270;BME280;42176;43.240;27.880;2023-03-04T09:34:46;100209.84;;;13.99;65.92
56270;BME280;42176;43.240;27.880;2023-03-04T09:37:11;100210.50;;;14.31;63.39
56270;BME280;42176;43.240;27.880;2023-03-04T09:39:37;100204.06;;;14.37;63.14
56270;BME280;42176;43.240;27.880;2023-03-04T09:42:03;100209.00;;;13.99;64.36
56270;BME280;42176;43.240;27.880;2023-03-04T09:44:41;100190.47;;;13.69;64.46
56270;BME280;42176;43.240;27.880;2023-03-04T09:47:13;100193.41;;;13.86;64.78
56270;BME280;42176;43.240;27.880;2023-03-04T09:49:41;100187.59;;;13.48;66.53
56270;BME280;42176;43.240;27.880;2023-03-04T09:55:32;100179.84;;;13.12;69.15
56270;BME280;42176;43.240;27.880;2023-03-04T10:01:25;100182.28;;;12.91;67.14
56270;BME280;42176;43.240;27.880;2023-03-04T10:03:57;100177.63;;;12.70;69.17
56270;BME280;42176;43.240;27.880;2023-03-04T10:06:23;100175.09;;;12.65;68.91
56270;BME280;42176;43.240;27.880;2023-03-04T10:09:02;100179.53;;;12.64;68.11
56270;BME280;42176;43.240;27.880;2023-03-04T10:11:39;100176.16;;;12.59;68.54
56270;BME280;42176;43.240;27.880;2023-03-04T10:19:44;100168.84;;;12.36;69.70
56270;BME280;42176;43.240;27.880;2023-03-04T10:22:28;100160.75;;;12.41;65.85
56270;BME280;42176;43.240;27.880;2023-03-04T10:24:58;100157.34;;;12.36;68.53
56270;BME280;42176;43.240;27.880;2023-03-04T10:27:25;100163.16;;;12.17;68.96
56270;BME280;42176;43.240;27.880;2023-03-04T10:29:55;100160.25;;;11.93;70.19
56270;BME280;42176;43.240;27.880;2023-03-04T10:32:22;100157.47;;;11.98;70.32
56270;BME280;42176;43.240;27.880;2023-03-04T10:34:47;100160.09;;;11.99;70.64
56270;BME280;42176;43.240;27.880;2023-03-04T10:37:13;100151.97;;;12.06;73.12
56270;BME280;42176;43.240;27.880;2023-03-04T10:39:43;100143.94;;;12.09;73.63
56270;BME280;42176;43.240;27.880;2023-03-04T10:44:41;100146.66;;;12.06;75.07
56270;BME280;42176;43.240;27.880;2023-03-04T10:47:09;100135.91;;;12.10;74.96
56270;BME280;42176;43.240;27.880;2023-03-04T10:49:49;100129.81;;;12.07;75.46
56270;BME280;42176;43.240;27.880;2023-03-04T10:52:32;100114.28;;;12.23;74.65
56270;BME280;42176;43.240;27.880;2023-03-04T10:55:02;100101.88;;;12.23;74.11
56270;BME280;42176;43.240;27.880;2023-03-04T10:57:36;100105.72;;;12.13;76.31
56270;BME280;42176;43.240;27.880;2023-03-04T11:02:47;100092.84;;;12.29;74.12
56270;BME280;42176;43.240;27.880;2023-03-04T11:05:24;100088.50;;;12.26;72.55
56270;BME280;42176;43.240;27.880;2023-03-04T11:07:54;100091.78;;;12.34;73.26
56270;BME280;42176;43.240;27.880;2023-03-04T11:13:31;100072.56;;;12.26;74.06
56270;BME280;42176;43.240;27.880;2023-03-04T11:16:03;100065.91;;;12.11;73.24
56270;BME280;42176;43.240;27.880;2023-03-04T11:18:52;100061.84;;;12.29;73.65
56270;BME280;42176;43.240;27.880;2023-03-04T11:21:24;100054.31;;;12.44;71.83
56270;BME280;42176;43.240;27.880;2023-03-04T11:24:04;100052.19;;;12.55;71.33
56270;BME280;42176;43.240;27.880;2023-03-04T11:31:48;100032.75;;;12.53;70.68
56270;BME280;42176;43.240;27.880;2023-03-04T11:39:36;100028.88;;;12.63;69.82
56270;BME280;42176;43.240;27.880;2023-03-04T11:44:40;100024.91;;;12.48;71.72
56270;BME280;42176;43.240;27.880;2023-03-04T11:55:12;100016.03;;;12.76;71.42
56270;BME280;42176;43.240;27.880;2023-03-04T12:00:57;100019.19;;;12.89;71.13
56270;BME280;42176;43.240;27.880;2023-03-04T12:12:26;100019.56;;;12.77;69.17
56270;BME280;42176;43.240;27.880;2023-03-04T12:28:21;100017.63;;;12.82;66.37
56270;BME280;42176;43.240;27.880;2023-03-04T12:44:13;100014.06;;;12.83;65.21
56270;BME280;42176;43.240;27.880;2023-03-04T12:52:37;99996.06;;;12.91;63.69
56270;BME280;42176;43.240;27.880;2023-03-04T12:55:11;99994.00;;;13.00;64.41
56270;BME280;42176;43.240;27.880;2023-03-04T12:57:39;99984.88;;;13.07;63.70
56270;BME280;42176;43.240;27.880;2023-03-04T13:06:10;99986.72;;;13.05;63.33
56270;BME280;42176;43.240;27.880;2023-03-04T13:08:53;99979.69;;;13.02;64.94
56270;BME280;42176;43.240;27.880;2023-03-04T13:16:45;99965.97;;;12.89;64.17
56270;BME280;42176;43.240;27.880;2023-03-04T13:22:29;99963.53;;;11.99;67.45
56270;BME280;42176;43.240;27.880;2023-03-04T13:24:58;99958.31;;;10.67;78.25
56270;BME280;42176;43.240;27.880;2023-03-04T13:43:42;99929.25;;;12.47;69.76
56270;BME280;42176;43.240;27.880;2023-03-04T13:53:52;99917.72;;;12.73;65.24
56270;BME280;42176;43.240;27.880;2023-03-04T13:59:27;99914.38;;;12.68;66.04
56270;BME280;42176;43.240;27.880;2023-03-04T14:06:57;99892.13;;;12.71;66.38
56270;BME280;42176;43.240;27.880;2023-03-04T14:09:31;99888.84;;;12.62;65.89
56270;BME280;42176;43.240;27.880;2023-03-04T14:12:00;99903.84;;;10.88;79.79
56270;BME280;42176;43.240;27.880;2023-03-04T14:14:41;99909.19;;;10.54;87.97
56270;BME280;42176;43.240;27.880;2023-03-04T14:17:17;99908.72;;;10.72;88.71
56270;BME280;42176;43.240;27.880;2023-03-04T14:19:45;99906.34;;;10.24;91.06
56270;BME280;42176;43.240;27.880;2023-03-04T14:22:27;99893.34;;;9.75;94.87
56270;BME280;42176;43.240;27.880;2023-03-04T14:24:57;99906.41;;;9.42;97.94
56270;BME280;42176;43.240;27.880;2023-03-04T14:27:23;99890.59;;;9.39;99.58
56270;BME280;42176;43.240;27.880;2023-03-04T14:30:24;99891.34;;;9.45;100.00
56270;BME280;42176;43.240;27.880;2023-03-04T14:32:52;99899.81;;;9.19;100.00
56270;BME280;42176;43.240;27.880;2023-03-04T14:35:23;99904.53;;;9.03;100.00
56270;BME280;42176;43.240;27.880;2023-03-04T14:40:32;99896.72;;;8.48;100.00
56270;BME280;42176;43.240;27.880;2023-03-04T14:43:07;99890.75;;;8.35;100.00
56270;BME280;42176;43.240;27.880;2023-03-04T14:45:33;99897.97;;;8.24;100.00
56270;BME280;42176;43.240;27.880;2023-03-04T14:48:05;99895.38;;;8.21;100.00
56270;BME280;42176;43.240;27.880;2023-03-04T14:50:31;99900.78;;;8.13;100.00
56270;BME280;42176;43.240;27.880;2023-03-04T14:53:24;99901.75;;;8.07;100.00
56270;BME280;42176;43.240;27.880;2023-03-04T14:58:23;99893.75;;;8.12;100.00
56270;BME280;42176;43.240;27.880;2023-03-04T15:01:28;99875.50;;;7.98;100.00
56270;BME280;42176;43.240;27.880;2023-03-04T15:04:03;99889.41;;;8.10;100.00
56270;BME280;42176;43.240;27.880;2023-03-04T15:06:32;99887.72;;;8.05;100.00
56270;BME280;42176;43.240;27.880;2023-03-04T15:11:51;99909.44;;;7.62;100.00